Time;durP1;ratioP1;P1;durP2;ratioP2;P2;SDS_P1;SDS_P2;PMS_P1;PMS_P2;Temp;Humidity;BMP_temperature;BMP_pressure;BME280_temperature;BME280_humidity;BME280_pressure;Samples;Min_cycle;Max_cycle;Signal;HPM_P1;HPM_P2
2023/08/28 00:02:19;;;;;;;1.40;1.30;;;27.30;69.10;;;;;;4858623;29;20433;-82
2023/08/28 00:04:49;;;;;;;1.33;1.23;;;27.30;69.10;;;;;;4859240;29;20456;-82
2023/08/28 00:07:17;;;;;;;1.30;1.20;;;27.30;69.10;;;;;;4859462;29;20437;-83
2023/08/28 00:09:45;;;;;;;1.43;1.30;;;27.30;69.10;;;;;;4852920;29;20832;-82
2023/08/28 00:12:13;;;;;;;1.37;1.27;;;27.30;69.10;;;;;;4859127;29;20516;-82
2023/08/28 00:14:42;;;;;;;1.13;1.10;;;27.30;69.10;;;;;;4852509;29;21003;-83
2023/08/28 00:17:10;;;;;;;2.50;1.37;;;27.30;69.10;;;;;;4857049;29;20494;-82
2023/08/28 00:19:38;;;;;;;1.30;1.20;;;27.30;69.10;;;;;;4857036;29;20542;-83
2023/08/28 00:22:07;;;;;;;1.50;1.40;;;27.30;69.10;;;;;;4854790;29;20459;-82
2023/08/28 00:24:36;;;;;;;1.40;1.27;;;27.30;69.10;;;;;;4858929;29;20496;-83
2023/08/28 00:27:04;;;;;;;1.03;1.03;;;27.30;69.10;;;;;;4852803;29;20862;-83
2023/08/28 00:29:32;;;;;;;1.20;1.17;;;27.30;69.10;;;;;;4860281;29;20823;-83
2023/08/28 00:32:00;;;;;;;1.50;1.40;;;27.30;69.10;;;;;;4861079;29;20496;-84
2023/08/28 00:34:29;;;;;;;1.37;1.27;;;27.30;69.10;;;;;;4861209;29;20965;-83
2023/08/28 00:36:57;;;;;;;1.60;1.50;;;27.30;69.10;;;;;;4861770;29;20481;-82
2023/08/28 00:39:27;;;;;;;1.43;1.33;;;27.30;69.10;;;;;;4860459;29;20537;-82
2023/08/28 00:41:55;;;;;;;1.33;1.23;;;27.30;69.10;;;;;;4862927;29;20437;-82
2023/08/28 00:44:23;;;;;;;1.40;0.93;;;27.30;69.10;;;;;;4860109;29;20474;-83
2023/08/28 00:46:52;;;;;;;1.70;1.13;;;27.30;69.10;;;;;;4860992;29;20463;-82
2023/08/28 00:49:20;;;;;;;1.43;1.33;;;27.30;69.10;;;;;;4862395;29;20534;-83
2023/08/28 00:51:48;;;;;;;1.63;1.53;;;27.30;69.10;;;;;;4876614;29;20478;-82
2023/08/28 00:54:17;;;;;;;1.30;1.27;;;27.30;69.10;;;;;;4862053;29;20456;-82
2023/08/28 00:56:49;;;;;;;1.40;1.30;;;27.30;69.10;;;;;;4875865;29;20579;-82
2023/08/28 00:59:18;;;;;;;2.13;1.27;;;27.30;69.10;;;;;;4860885;29;20453;-83
2023/08/28 01:01:47;;;;;;;1.00;1.00;;;27.30;69.10;;;;;;4857158;29;20475;-82
2023/08/28 01:04:15;;;;;;;1.10;1.00;;;27.30;69.10;;;;;;4860707;29;20616;-82
2023/08/28 01:06:52;;;;;;;1.17;1.07;;;27.30;69.10;;;;;;4841813;29;20472;-82
2023/08/28 01:09:32;;;;;;;1.03;1.03;;;27.20;69.10;;;;;;4861229;29;20467;-82
2023/08/28 01:12:11;;;;;;;1.43;1.33;;;27.30;69.10;;;;;;4855040;29;20473;-84
2023/08/28 01:14:48;;;;;;;1.33;1.23;;;27.20;69.10;;;;;;4859031;29;20466;-83
2023/08/28 01:17:18;;;;;;;1.00;1.00;;;27.20;69.10;;;;;;4841690;29;20480;-82
2023/08/28 01:19:47;;;;;;;1.90;1.10;;;27.20;69.10;;;;;;4856909;29;20886;-82
2023/08/28 01:22:21;;;;;;;1.20;1.10;;;27.20;69.10;;;;;;4851339;29;21010;-82
2023/08/28 01:24:52;;;;;;;1.27;1.17;;;27.20;69.10;;;;;;4852229;29;20471;-84
2023/08/28 01:27:22;;;;;;;1.10;1.00;;;27.20;69.10;;;;;;4855844;29;20473;-83
2023/08/28 01:30:11;;;;;;;1.50;1.40;;;27.20;69.10;;;;;;4860208;29;20953;-83
2023/08/28 01:32:41;;;;;;;1.73;1.20;;;27.20;69.10;;;;;;4853022;29;20843;-83
2023/08/28 01:35:12;;;;;;;1.20;1.20;;;27.20;69.10;;;;;;4848479;29;20476;-82
2023/08/28 01:38:02;;;;;;;1.30;1.20;;;27.20;69.10;;;;;;4857112;29;20488;-83
2023/08/28 01:40:35;;;;;;;1.03;1.03;;;27.20;69.10;;;;;;4854764;29;21328;-83
2023/08/28 01:43:09;;;;;;;1.10;1.07;;;27.20;69.10;;;;;;4860754;29;20444;-83
2023/08/28 01:45:39;;;;;;;0.93;0.93;;;27.20;69.10;;;;;;4858607;29;20514;-82
2023/08/28 01:48:07;;;;;;;1.10;1.00;;;27.20;69.10;;;;;;4843891;29;20474;-82
2023/08/28 01:50:35;;;;;;;1.57;1.33;;;27.20;69.10;;;;;;4875759;29;20968;-83
2023/08/28 01:53:04;;;;;;;1.70;1.60;;;27.20;69.10;;;;;;4859696;29;20524;-82
2023/08/28 01:56:23;;;;;;;1.23;1.13;;;27.20;69.10;;;;;;4860157;29;20472;-83
2023/08/28 01:58:55;;;;;;;1.27;1.17;;;27.20;69.10;;;;;;4874978;29;20472;-82
2023/08/28 02:01:24;;;;;;;1.30;1.20;;;27.20;69.10;;;;;;4859033;29;20516;-82
2023/08/28 02:03:52;;;;;;;1.30;1.20;;;27.20;69.10;;;;;;4859394;29;20474;-82
2023/08/28 02:06:21;;;;;;;1.20;1.20;;;27.20;69.10;;;;;;4856906;29;20475;-83
2023/08/28 02:08:49;;;;;;;1.37;1.27;;;27.20;68.90;;;;;;4846491;29;20812;-82
2023/08/28 02:11:17;;;;;;;1.83;1.37;;;27.20;69.10;;;;;;4856127;29;20505;-83
2023/08/28 02:13:45;;;;;;;1.10;1.00;;;27.20;69.10;;;;;;4840553;29;20560;-82
2023/08/28 02:16:17;;;;;;;1.57;1.47;;;27.20;68.90;;;;;;4840972;29;20473;-82
2023/08/28 02:18:45;;;;;;;1.20;1.20;;;27.20;68.90;;;;;;4846690;29;20492;-82
2023/08/28 02:21:13;;;;;;;1.43;1.03;;;27.20;68.90;;;;;;4859400;29;20815;-83
2023/08/28 02:23:42;;;;;;;1.40;1.30;;;27.20;68.90;;;;;;4844599;29;20456;-82
2023/08/28 02:26:10;;;;;;;1.40;1.30;;;27.20;68.90;;;;;;4841255;29;20468;-82
2023/08/28 02:28:38;;;;;;;1.43;1.33;;;27.20;68.90;;;;;;4846715;29;20457;-82
2023/08/28 02:31:07;;;;;;;1.33;1.23;;;27.20;68.90;;;;;;4859113;29;20489;-83
2023/08/28 02:33:36;;;;;;;1.53;1.43;;;27.20;68.90;;;;;;4857859;29;20465;-82
2023/08/28 02:36:05;;;;;;;0.97;0.97;;;27.20;68.90;;;;;;4843848;29;20466;-83
2023/08/28 02:38:33;;;;;;;1.37;1.13;;;27.10;68.90;;;;;;4858720;29;20472;-82
2023/08/28 02:41:06;;;;;;;1.40;1.30;;;27.20;68.90;;;;;;4847251;29;20500;-82
2023/08/28 02:43:34;;;;;;;1.57;1.47;;;27.10;68.90;;;;;;4839842;29;20877;-82
2023/08/28 02:46:03;;;;;;;1.57;1.47;;;27.20;68.90;;;;;;4855935;29;20468;-83
2023/08/28 02:48:31;;;;;;;0.93;0.93;;;27.10;68.90;;;;;;4844314;29;20570;-83
2023/08/28 02:51:01;;;;;;;0.90;0.90;;;27.10;68.90;;;;;;4857800;29;20480;-82
2023/08/28 02:53:29;;;;;;;1.87;1.40;;;27.10;69.00;;;;;;4857409;29;20481;-82
2023/08/28 02:56:12;;;;;;;1.07;0.97;;;27.10;68.90;;;;;;4859195;29;20464;-82
2023/08/28 02:58:40;;;;;;;1.60;1.20;;;27.10;69.00;;;;;;4857409;29;20479;-83
2023/08/28 03:01:09;;;;;;;1.13;1.10;;;27.10;69.00;;;;;;4860142;29;20459;-83
2023/08/28 03:03:37;;;;;;;1.17;1.07;;;27.10;69.00;;;;;;4852935;29;20528;-82
2023/08/28 03:06:07;;;;;;;1.33;1.23;;;27.10;68.90;;;;;;4860236;29;20440;-83
2023/08/28 03:08:35;;;;;;;1.30;1.20;;;27.10;69.00;;;;;;4853676;29;20569;-82
2023/08/28 03:11:03;;;;;;;1.17;1.00;;;27.10;69.00;;;;;;4873862;29;20804;-82
2023/08/28 03:13:31;;;;;;;2.30;1.47;;;27.10;69.00;;;;;;4851624;29;21039;-84
2023/08/28 03:16:00;;;;;;;1.20;1.20;;;27.10;69.00;;;;;;4841207;29;20464;-83
2023/08/28 03:18:28;;;;;;;1.00;1.00;;;27.10;69.00;;;;;;4841980;29;20948;-82
2023/08/28 03:20:56;;;;;;;1.50;1.40;;;27.10;69.00;;;;;;4858290;29;20463;-82
2023/08/28 03:23:26;;;;;;;1.30;1.20;;;27.10;69.00;;;;;;4843774;29;20474;-83
2023/08/28 03:25:54;;;;;;;1.20;1.10;;;27.10;69.00;;;;;;4871515;29;20530;-82
2023/08/28 03:28:22;;;;;;;1.00;1.00;;;27.10;69.00;;;;;;4858552;29;20449;-83
2023/08/28 03:30:50;;;;;;;1.10;1.10;;;27.10;69.00;;;;;;4859138;29;20546;-83
2023/08/28 03:33:18;;;;;;;1.33;1.23;;;27.10;69.00;;;;;;4852313;29;20471;-82
2023/08/28 03:35:47;;;;;;;1.13;1.03;;;27.10;69.00;;;;;;4859680;29;20447;-83
2023/08/28 03:38:15;;;;;;;1.57;1.20;;;27.10;68.90;;;;;;4859400;29;20877;-82
2023/08/28 03:40:45;;;;;;;1.00;1.00;;;27.10;68.90;;;;;;4859070;29;20461;-82
2023/08/28 03:43:13;;;;;;;1.53;1.43;;;27.10;68.90;;;;;;4858308;29;20436;-82
2023/08/28 03:45:41;;;;;;;1.67;1.33;;;27.10;68.90;;;;;;4859505;29;20446;-82
2023/08/28 03:48:10;;;;;;;1.20;1.20;;;27.10;68.90;;;;;;4857782;29;21576;-83
2023/08/28 03:50:38;;;;;;;1.40;1.30;;;27.10;68.90;;;;;;4858090;29;20473;-82
2023/08/28 03:53:06;;;;;;;1.10;1.07;;;27.10;68.90;;;;;;4858013;29;20465;-83
2023/08/28 03:55:34;;;;;;;1.27;1.17;;;27.10;68.90;;;;;;4859175;29;20994;-82
2023/08/28 03:58:05;;;;;;;1.67;1.10;;;27.10;68.90;;;;;;4858013;29;20974;-82
2023/08/28 04:00:33;;;;;;;1.20;1.10;;;27.00;68.90;;;;;;4854854;29;20469;-82
2023/08/28 04:03:02;;;;;;;1.50;1.40;;;27.00;68.90;;;;;;4858913;29;20461;-83
2023/08/28 04:05:32;;;;;;;1.03;1.00;;;27.00;68.90;;;;;;4870716;29;20463;-84
2023/08/28 04:08:01;;;;;;;1.20;1.10;;;27.00;68.90;;;;;;4857982;29;20478;-83
2023/08/28 04:10:29;;;;;;;1.50;1.40;;;27.00;68.90;;;;;;4858737;29;20480;-83
2023/08/28 04:12:59;;;;;;;1.00;1.00;;;27.00;68.90;;;;;;4858708;29;20474;-83
2023/08/28 04:15:29;;;;;;;1.00;1.00;;;27.00;68.90;;;;;;4858120;29;20469;-82
2023/08/28 04:17:59;;;;;;;1.50;1.40;;;27.00;68.90;;;;;;4857783;29;20487;-83
2023/08/28 04:20:28;;;;;;;1.33;1.23;;;27.00;68.90;;;;;;4857983;29;20491;-83
2023/08/28 04:22:56;;;;;;;1.10;1.00;;;27.00;68.90;;;;;;4858565;29;20468;-82
2023/08/28 04:25:24;;;;;;;1.80;1.43;;;27.00;68.90;;;;;;4858843;29;20452;-82
2023/08/28 04:27:52;;;;;;;1.30;1.20;;;27.00;68.90;;;;;;4857118;29;20501;-82
2023/08/28 04:30:21;;;;;;;1.30;1.20;;;27.00;68.90;;;;;;4851121;29;20510;-83
2023/08/28 04:32:50;;;;;;;1.20;1.20;;;27.00;68.80;;;;;;4841081;29;20495;-82
2023/08/28 04:35:19;;;;;;;1.53;1.43;;;27.00;68.80;;;;;;4853917;29;20888;-82
2023/08/28 04:37:47;;;;;;;1.50;1.23;;;27.00;68.80;;;;;;4857258;29;20461;-82
2023/08/28 04:40:16;;;;;;;1.50;1.40;;;27.00;68.80;;;;;;4873357;29;20462;-83
2023/08/28 04:42:44;;;;;;;1.03;1.03;;;27.00;68.80;;;;;;4857021;29;20831;-82
2023/08/28 04:45:12;;;;;;;1.17;1.17;;;27.00;68.80;;;;;;4856957;29;20970;-82
2023/08/28 04:47:40;;;;;;;1.40;1.30;;;27.00;68.80;;;;;;4857841;29;20944;-84
2023/08/28 04:50:10;;;;;;;1.90;1.80;;;27.00;68.80;;;;;;4856473;29;20607;-82
2023/08/28 04:52:39;;;;;;;1.70;1.53;;;27.00;68.80;;;;;;4858614;29;20459;-83
2023/08/28 04:55:07;;;;;;;1.40;1.17;;;27.00;68.80;;;;;;4856402;29;20477;-82
2023/08/28 04:57:35;;;;;;;1.13;1.13;;;27.00;68.80;;;;;;4857060;29;20467;-83
2023/08/28 05:00:07;;;;;;;2.30;1.47;;;27.00;68.80;;;;;;4849566;29;20505;-82
2023/08/28 05:02:35;;;;;;;1.10;1.10;;;27.00;68.80;;;;;;4872720;29;20475;-83
2023/08/28 05:05:04;;;;;;;1.50;1.40;;;27.00;68.80;;;;;;4857677;29;20575;-83
2023/08/28 05:07:35;;;;;;;1.07;1.00;;;27.00;68.80;;;;;;4857193;29;20551;-82
2023/08/28 05:10:04;;;;;;;1.63;1.53;;;27.00;68.80;;;;;;4858501;29;20784;-83
2023/08/28 05:12:32;;;;;;;1.30;1.20;;;27.00;68.80;;;;;;4872281;29;20877;-82
2023/08/28 05:15:00;;;;;;;1.20;1.10;;;27.00;68.80;;;;;;4858186;29;20471;-82
2023/08/28 05:17:28;;;;;;;1.47;1.40;;;27.00;68.80;;;;;;4861521;29;20443;-83
2023/08/28 05:19:56;;;;;;;1.30;1.20;;;27.00;68.80;;;;;;4860908;29;20999;-83
2023/08/28 05:22:24;;;;;;;1.30;1.20;;;26.90;68.70;;;;;;4862658;29;20467;-82
2023/08/28 05:24:54;;;;;;;1.13;1.10;;;26.90;68.70;;;;;;4879415;29;20463;-82
2023/08/28 05:27:22;;;;;;;1.70;1.60;;;26.90;68.70;;;;;;4872724;29;20482;-83
2023/08/28 05:29:52;;;;;;;1.30;1.20;;;26.90;68.70;;;;;;4850722;29;20476;-83
2023/08/28 05:32:21;;;;;;;1.50;1.37;;;26.90;68.70;;;;;;4860009;29;20492;-82
2023/08/28 05:34:49;;;;;;;1.50;1.40;;;26.90;68.70;;;;;;4849931;29;20903;-82
2023/08/28 05:37:20;;;;;;;1.60;1.50;;;26.90;68.70;;;;;;4856897;29;20965;-84
2023/08/28 05:39:48;;;;;;;1.43;1.33;;;26.90;68.70;;;;;;4854294;29;20983;-82
2023/08/28 05:42:18;;;;;;;1.47;1.37;;;26.90;68.70;;;;;;4860114;29;20486;-82
2023/08/28 05:44:48;;;;;;;1.40;1.30;;;26.90;68.70;;;;;;4860308;29;20472;-82
2023/08/28 05:47:16;;;;;;;1.40;1.30;;;26.90;68.70;;;;;;4876167;29;20472;-82
2023/08/28 05:49:44;;;;;;;1.60;1.40;;;26.90;68.70;;;;;;4855276;29;20472;-83
2023/08/28 05:52:12;;;;;;;1.43;1.33;;;26.90;68.70;;;;;;4854524;29;20479;-82
2023/08/28 05:54:41;;;;;;;1.50;1.40;;;26.90;68.60;;;;;;4849893;29;20475;-83
2023/08/28 05:57:09;;;;;;;1.23;1.13;;;26.90;68.60;;;;;;4857359;29;20519;-82
2023/08/28 05:59:38;;;;;;;1.67;1.57;;;26.90;68.60;;;;;;4859715;29;20893;-82
2023/08/28 06:02:07;;;;;;;1.80;1.70;;;26.90;68.60;;;;;;4855989;29;20478;-82
2023/08/28 06:04:35;;;;;;;1.60;1.50;;;26.90;68.60;;;;;;4859254;29;20460;-83
2023/08/28 06:07:04;;;;;;;1.40;1.30;;;26.90;68.60;;;;;;4869396;29;20495;-82
2023/08/28 06:09:32;;;;;;;1.23;1.23;;;26.90;68.60;;;;;;4859655;29;20491;-83
2023/08/28 06:12:00;;;;;;;1.07;1.07;;;26.90;68.60;;;;;;4860632;29;20429;-83
2023/08/28 06:14:29;;;;;;;1.50;1.30;;;26.90;68.60;;;;;;4859310;29;20507;-83
2023/08/28 06:16:59;;;;;;;1.13;1.03;;;26.90;68.60;;;;;;4860907;29;20490;-84
2023/08/28 06:19:27;;;;;;;1.80;1.70;;;26.90;68.60;;;;;;4860227;29;20479;-82
2023/08/28 06:21:55;;;;;;;1.40;1.30;;;26.90;68.60;;;;;;4860940;29;20981;-82
2023/08/28 06:24:23;;;;;;;1.23;1.13;;;26.90;68.60;;;;;;4860189;29;20440;-82
2023/08/28 06:26:52;;;;;;;1.10;1.10;;;26.90;68.60;;;;;;4854372;29;20474;-83
2023/08/28 06:29:20;;;;;;;1.37;1.37;;;26.90;68.50;;;;;;4859831;29;20463;-83
2023/08/28 06:31:48;;;;;;;2.27;1.70;;;26.90;68.50;;;;;;4854488;29;20571;-82
2023/08/28 06:34:18;;;;;;;1.30;1.20;;;26.90;68.50;;;;;;4844187;29;20538;-83
2023/08/28 06:36:49;;;;;;;2.83;1.90;;;26.90;68.50;;;;;;4860609;29;20909;-82
2023/08/28 06:39:18;;;;;;;1.30;1.30;;;26.90;68.50;;;;;;4858814;29;20480;-82
2023/08/28 06:41:46;;;;;;;1.43;1.33;;;26.90;68.50;;;;;;4859952;29;20494;-83
2023/08/28 06:44:14;;;;;;;1.83;1.73;;;26.90;68.50;;;;;;4859642;29;21497;-83
2023/08/28 06:46:42;;;;;;;1.37;1.30;;;26.90;68.50;;;;;;4859952;29;20472;-82
2023/08/28 06:49:10;;;;;;;1.37;1.27;;;26.90;68.50;;;;;;4859026;29;20827;-83
2023/08/28 06:51:40;;;;;;;1.40;1.30;;;26.90;68.50;;;;;;4860538;29;20440;-82
2023/08/28 06:54:08;;;;;;;1.80;1.60;;;26.90;68.50;;;;;;4859638;29;20449;-82
2023/08/28 06:56:36;;;;;;;1.50;1.40;;;26.90;68.50;;;;;;4855129;29;20503;-82
2023/08/28 06:59:05;;;;;;;1.80;1.47;;;26.90;68.50;;;;;;4859052;29;20461;-82
2023/08/28 07:01:33;;;;;;;1.40;1.30;;;26.90;68.50;;;;;;4852607;29;20505;-82
2023/08/28 07:04:01;;;;;;;1.20;1.10;;;26.90;68.50;;;;;;4842704;29;21026;-83
2023/08/28 07:06:29;;;;;;;1.37;1.27;;;26.90;68.50;;;;;;4841275;29;20498;-83
2023/08/28 07:08:59;;;;;;;1.53;1.43;;;26.80;68.40;;;;;;4857126;29;20833;-82
2023/08/28 07:11:28;;;;;;;1.43;1.33;;;26.80;68.50;;;;;;4860314;29;20439;-82
2023/08/28 07:13:56;;;;;;;1.30;1.20;;;26.80;68.40;;;;;;4858750;29;20435;-82
2023/08/28 07:16:24;;;;;;;1.37;1.27;;;26.90;68.40;;;;;;4858535;29;20595;-82
2023/08/28 07:18:52;;;;;;;1.50;1.40;;;26.80;68.40;;;;;;4859111;29;20450;-82
2023/08/28 07:21:20;;;;;;;1.37;1.27;;;26.80;68.40;;;;;;4859695;29;20479;-82
2023/08/28 07:23:51;;;;;;;1.20;1.10;;;26.80;68.40;;;;;;4854516;29;20483;-83
2023/08/28 07:26:20;;;;;;;1.53;1.50;;;26.80;68.40;;;;;;4841150;29;20466;-82
2023/08/28 07:28:49;;;;;;;1.43;1.33;;;26.80;68.40;;;;;;4842639;29;20459;-82
2023/08/28 07:31:17;;;;;;;1.27;1.20;;;26.80;68.40;;;;;;4853953;29;20524;-82
2023/08/28 07:33:45;;;;;;;1.43;1.33;;;26.80;68.40;;;;;;4858956;29;20444;-82
2023/08/28 07:36:13;;;;;;;1.53;1.40;;;26.80;68.40;;;;;;4859240;29;20979;-83
2023/08/28 07:38:43;;;;;;;1.13;1.10;;;26.80;68.40;;;;;;4859070;29;20470;-82
2023/08/28 07:41:11;;;;;;;1.20;1.13;;;26.80;68.40;;;;;;4873561;29;21254;-83
2023/08/28 07:43:41;;;;;;;1.50;1.40;;;26.80;68.40;;;;;;4858666;29;20440;-82
2023/08/28 07:46:09;;;;;;;1.37;1.30;;;26.80;68.40;;;;;;4859533;29;20436;-82
2023/08/28 07:48:37;;;;;;;1.60;1.50;;;26.80;68.40;;;;;;4858809;29;20445;-82
2023/08/28 07:51:05;;;;;;;1.40;1.30;;;26.80;68.40;;;;;;4853100;29;20872;-83
2023/08/28 07:53:33;;;;;;;1.43;1.33;;;26.80;68.30;;;;;;4847358;29;20528;-83
2023/08/28 07:56:02;;;;;;;1.97;1.87;;;26.80;68.30;;;;;;4842756;29;20477;-83
2023/08/28 07:58:30;;;;;;;1.30;1.10;;;26.80;68.30;;;;;;4843710;29;20591;-83
2023/08/28 08:01:00;;;;;;;1.57;1.47;;;26.80;68.40;;;;;;4858815;29;20479;-82
2023/08/28 08:03:29;;;;;;;1.53;1.43;;;26.80;68.30;;;;;;4859196;29;20448;-82
2023/08/28 08:05:57;;;;;;;1.53;1.43;;;26.80;68.30;;;;;;4859321;29;20438;-82
2023/08/28 08:08:25;;;;;;;1.20;1.20;;;26.80;68.30;;;;;;4858032;29;20457;-82
2023/08/28 08:10:53;;;;;;;1.20;1.20;;;26.80;68.30;;;;;;4857768;29;20460;-83
2023/08/28 08:13:21;;;;;;;1.33;1.27;;;26.80;68.30;;;;;;4858341;29;20435;-83
2023/08/28 08:15:51;;;;;;;1.30;1.20;;;26.80;68.30;;;;;;4858828;29;20983;-83
2023/08/28 08:18:21;;;;;;;1.20;1.20;;;26.80;68.30;;;;;;4858727;29;20429;-82
2023/08/28 08:20:50;;;;;;;2.53;1.53;;;26.80;68.30;;;;;;4859216;29;20586;-82
2023/08/28 08:23:18;;;;;;;1.50;1.40;;;26.80;68.30;;;;;;4846436;29;20472;-81
2023/08/28 08:25:46;;;;;;;1.47;1.37;;;26.80;68.30;;;;;;4840418;29;20580;-82
2023/08/28 08:28:15;;;;;;;1.50;1.40;;;26.80;68.30;;;;;;4842495;29;21024;-82
2023/08/28 08:30:44;;;;;;;1.00;1.00;;;26.80;68.30;;;;;;4858681;29;20516;-82
2023/08/28 08:33:12;;;;;;;1.40;1.30;;;26.80;68.30;;;;;;4858933;29;20444;-84
2023/08/28 08:35:42;;;;;;;1.50;1.40;;;26.80;68.20;;;;;;4858903;29;20472;-84
2023/08/28 08:38:10;;;;;;;1.40;1.30;;;26.80;68.30;;;;;;4858534;29;20849;-82
2023/08/28 08:40:41;;;;;;;1.60;1.50;;;26.80;68.20;;;;;;4859498;29;20481;-82
2023/08/28 08:43:10;;;;;;;3.70;1.43;;;26.80;68.20;;;;;;4858123;29;20488;-82
2023/08/28 08:45:42;;;;;;;1.33;1.20;;;26.80;68.20;;;;;;4858309;29;20496;-82
2023/08/28 08:48:15;;;;;;;1.50;1.40;;;26.80;68.20;;;;;;4859045;29;21281;-83
2023/08/28 08:50:48;;;;;;;1.37;1.27;;;26.80;68.20;;;;;;4856577;29;20467;-83
2023/08/28 08:53:31;;;;;;;1.07;1.07;;;26.80;68.20;;;;;;4861071;29;20519;-82
2023/08/28 08:56:03;;;;;;;1.70;1.60;;;26.80;68.20;;;;;;4854125;29;20481;-83
2023/08/28 08:58:33;;;;;;;1.07;1.07;;;26.80;68.10;;;;;;4859351;29;20535;-83
2023/08/28 09:01:04;;;;;;;2.03;1.20;;;26.80;68.10;;;;;;4857253;29;20888;-82
2023/08/28 09:03:32;;;;;;;1.33;1.23;;;26.80;68.10;;;;;;4843894;29;20448;-83
2023/08/28 09:06:03;;;;;;;1.30;1.20;;;26.80;68.10;;;;;;4843652;29;20559;-82
2023/08/28 09:08:33;;;;;;;1.40;1.30;;;26.80;68.10;;;;;;4843082;29;20493;-82
2023/08/28 09:11:04;;;;;;;1.50;1.40;;;26.80;68.10;;;;;;4861031;29;20455;-83
2023/08/28 09:13:33;;;;;;;1.40;1.30;;;26.80;68.10;;;;;;4860961;29;20445;-84
2023/08/28 09:16:03;;;;;;;1.40;1.30;;;26.80;68.00;;;;;;4861964;29;20559;-83
2023/08/28 09:18:32;;;;;;;1.40;1.30;;;26.80;68.00;;;;;;4862373;29;20446;-82
2023/08/28 09:21:08;;;;;;;2.20;1.37;;;26.80;68.00;;;;;;4851732;29;20850;-82
2023/08/28 09:23:43;;;;;;;1.10;1.10;;;26.80;68.00;;;;;;4842747;29;20455;-82
2023/08/28 09:26:14;;;;;;;1.60;1.50;;;26.80;67.90;;;;;;4845017;29;20470;-82
2023/08/28 09:28:42;;;;;;;1.87;1.33;;;26.80;67.90;;;;;;4845037;29;20458;-83
2023/08/28 09:31:11;;;;;;;1.33;1.23;;;26.80;67.80;;;;;;4861570;29;20495;-83
2023/08/28 09:33:45;;;;;;;1.73;1.20;;;26.90;67.80;;;;;;4861889;29;20448;-82
2023/08/28 09:36:36;;;;;;;1.37;1.30;;;26.90;67.80;;;;;;4861198;29;21042;-82
2023/08/28 09:39:07;;;;;;;1.40;1.30;;;26.90;67.70;;;;;;4861312;29;20987;-84
2023/08/28 09:41:41;;;;;;;1.20;1.20;;;26.90;67.70;;;;;;4861518;29;20478;-83
2023/08/28 09:44:10;;;;;;;1.67;1.20;;;26.90;67.60;;;;;;4860683;29;20466;-83
2023/08/28 09:46:39;;;;;;;1.33;1.33;;;26.90;67.60;;;;;;4861359;29;20460;-82
2023/08/28 09:49:09;;;;;;;1.30;1.23;;;26.90;67.60;;;;;;4856818;29;20467;-84
2023/08/28 09:51:42;;;;;;;1.50;1.40;;;27.00;67.50;;;;;;4845553;29;20881;-82
2023/08/28 09:54:12;;;;;;;1.70;1.60;;;27.00;67.50;;;;;;4842618;29;20480;-82
2023/08/28 09:56:40;;;;;;;1.17;1.17;;;27.00;67.40;;;;;;4861820;29;20451;-82
2023/08/28 09:59:11;;;;;;;1.27;1.17;;;27.00;67.40;;;;;;4852954;29;20490;-82
2023/08/28 10:01:39;;;;;;;1.40;1.30;;;27.00;67.40;;;;;;4842932;29;20484;-82
2023/08/28 10:04:10;;;;;;;1.30;1.20;;;27.10;67.30;;;;;;4849921;29;20464;-83
2023/08/28 10:06:41;;;;;;;1.40;1.27;;;27.00;67.30;;;;;;4860770;29;20927;-82
2023/08/28 10:09:18;;;;;;;1.50;1.40;;;27.00;67.20;;;;;;4858040;29;20470;-82
2023/08/28 10:11:47;;;;;;;1.47;1.37;;;27.10;67.20;;;;;;4860944;29;20811;-83
2023/08/28 10:14:16;;;;;;;1.77;1.63;;;27.10;67.20;;;;;;4860142;29;20445;-82
2023/08/28 10:16:48;;;;;;;1.60;1.43;;;27.10;67.20;;;;;;4861121;29;20456;-83
2023/08/28 10:19:20;;;;;;;1.57;1.47;;;27.10;67.10;;;;;;4854895;29;20474;-82
2023/08/28 10:21:51;;;;;;;1.57;1.47;;;27.10;67.10;;;;;;4860483;29;20599;-83
2023/08/28 10:24:20;;;;;;;1.70;1.60;;;27.10;67.00;;;;;;4854903;29;20471;-81
2023/08/28 10:26:49;;;;;;;1.60;1.50;;;27.10;67.00;;;;;;4859340;29;20576;-82
2023/08/28 10:29:19;;;;;;;1.60;1.50;;;27.10;66.90;;;;;;4859945;29;20449;-82
2023/08/28 10:31:48;;;;;;;1.67;1.53;;;27.10;66.90;;;;;;4860567;29;20501;-82
2023/08/28 10:34:17;;;;;;;1.60;1.50;;;27.10;66.90;;;;;;4860217;29;20479;-83
2023/08/28 10:36:47;;;;;;;1.30;1.20;;;27.10;66.90;;;;;;4859687;29;20529;-82
2023/08/28 10:39:37;;;;;;;1.73;1.57;;;27.10;66.80;;;;;;4860410;29;20455;-82
2023/08/28 10:42:06;;;;;;;1.13;1.13;;;27.10;66.90;;;;;;4860141;29;20477;-83
2023/08/28 10:44:35;;;;;;;1.23;1.20;;;27.10;66.80;;;;;;4859040;29;20450;-82
2023/08/28 10:47:04;;;;;;;1.43;1.33;;;27.10;66.80;;;;;;4852808;29;20488;-82
2023/08/28 10:49:33;;;;;;;1.57;1.47;;;27.10;66.80;;;;;;4859159;29;20940;-83
2023/08/28 10:52:03;;;;;;;1.50;1.40;;;27.10;66.80;;;;;;4852882;29;20904;-84
2023/08/28 10:54:39;;;;;;;1.60;1.50;;;27.10;66.80;;;;;;4848776;29;20480;-82
2023/08/28 10:57:21;;;;;;;1.80;1.70;;;27.10;66.80;;;;;;4858860;29;20443;-82
2023/08/28 10:59:49;;;;;;;1.50;1.40;;;27.10;66.80;;;;;;4860149;29;20847;-82
2023/08/28 11:02:18;;;;;;;1.40;1.30;;;27.10;66.80;;;;;;4860330;29;20505;-82
2023/08/28 11:04:47;;;;;;;1.50;1.40;;;27.10;66.70;;;;;;4859813;29;20440;-82
2023/08/28 11:07:42;;;;;;;1.50;1.40;;;27.10;66.70;;;;;;4860230;29;20467;-82
2023/08/28 11:10:20;;;;;;;1.60;1.50;;;27.10;66.70;;;;;;4860244;29;20453;-83
2023/08/28 11:12:54;;;;;;;1.43;1.33;;;27.00;66.80;;;;;;4858323;29;20442;-82
2023/08/28 11:15:27;;;;;;;1.47;1.37;;;27.10;66.80;;;;;;4855942;29;20978;-82
2023/08/28 11:18:26;;;;;;;1.20;1.20;;;27.00;66.70;;;;;;4841467;29;20457;-83
2023/08/28 11:20:55;;;;;;;1.10;1.10;;;27.00;66.80;;;;;;4851668;29;20472;-82
2023/08/28 11:23:25;;;;;;;1.63;1.53;;;27.00;66.80;;;;;;4858922;29;20480;-82
2023/08/28 11:25:55;;;;;;;1.67;1.57;;;27.00;66.80;;;;;;4860047;29;20838;-83
2023/08/28 11:28:29;;;;;;;1.60;1.50;;;27.00;66.80;;;;;;4852498;29;20472;-83
2023/08/28 11:31:04;;;;;;;1.13;1.13;;;27.00;66.70;;;;;;4859508;29;20495;-82
2023/08/28 11:33:40;;;;;;;1.57;1.47;;;27.00;66.70;;;;;;4853016;29;21018;-83
2023/08/28 11:36:10;;;;;;;4.40;1.63;;;27.00;66.70;;;;;;4859285;29;20436;-82
2023/08/28 11:38:40;;;;;;;1.40;1.30;;;27.00;66.70;;;;;;4857914;29;20456;-83
2023/08/28 11:41:11;;;;;;;1.27;1.20;;;27.00;66.70;;;;;;4859507;29;20874;-82
2023/08/28 11:43:41;;;;;;;1.30;1.20;;;27.00;66.70;;;;;;4851482;29;20580;-83
2023/08/28 11:46:09;;;;;;;1.30;1.30;;;27.00;66.60;;;;;;4860081;29;20508;-83
2023/08/28 11:48:39;;;;;;;1.60;1.50;;;27.00;66.60;;;;;;4856998;29;20817;-82
2023/08/28 11:51:09;;;;;;;1.30;1.30;;;27.00;66.60;;;;;;4847824;29;20521;-83
2023/08/28 11:53:40;;;;;;;1.80;1.60;;;27.00;66.60;;;;;;4840953;29;20442;-82
2023/08/28 11:56:12;;;;;;;1.77;1.67;;;27.00;66.60;;;;;;4855249;29;20815;-82
2023/08/28 11:58:42;;;;;;;1.40;1.30;;;27.00;66.60;;;;;;4839758;29;20433;-82
2023/08/28 12:01:12;;;;;;;1.10;1.10;;;27.00;66.60;;;;;;4851557;29;20478;-83
2023/08/28 12:03:43;;;;;;;1.50;1.40;;;27.00;66.60;;;;;;4858843;29;20476;-83
2023/08/28 12:06:17;;;;;;;1.50;1.40;;;27.00;66.50;;;;;;4856310;29;20525;-82
2023/08/28 12:08:47;;;;;;;1.60;1.50;;;27.00;66.50;;;;;;4842564;29;20470;-82
2023/08/28 12:11:19;;;;;;;1.63;1.53;;;27.00;66.60;;;;;;4858789;29;20454;-83
2023/08/28 12:13:47;;;;;;;1.60;1.50;;;27.00;66.50;;;;;;4852794;29;21079;-82
2023/08/28 12:16:18;;;;;;;2.17;1.53;;;27.00;66.50;;;;;;4859461;29;20473;-83
2023/08/28 12:18:47;;;;;;;1.30;1.23;;;27.00;66.60;;;;;;4858867;29;20440;-82
2023/08/28 12:21:17;;;;;;;1.60;1.50;;;27.00;66.60;;;;;;4858980;29;20445;-83
2023/08/28 12:23:51;;;;;;;1.50;1.40;;;26.90;66.50;;;;;;4859455;29;20476;-82
2023/08/28 12:26:23;;;;;;;1.20;1.20;;;26.90;66.50;;;;;;4863131;29;20447;-83
2023/08/28 12:28:51;;;;;;;1.30;1.30;;;26.90;66.50;;;;;;4861902;29;20441;-83
2023/08/28 12:31:28;;;;;;;1.27;1.27;;;26.90;66.50;;;;;;4862921;29;20586;-82
2023/08/28 12:33:56;;;;;;;1.50;1.40;;;26.90;66.50;;;;;;4862638;29;20469;-83
2023/08/28 12:36:37;;;;;;;1.20;1.20;;;26.90;66.50;;;;;;4862387;29;20448;-82
2023/08/28 12:39:06;;;;;;;1.70;1.60;;;26.90;66.50;;;;;;4862762;29;20902;-82
2023/08/28 12:41:37;;;;;;;1.63;1.53;;;26.90;66.50;;;;;;4858040;29;20836;-82
2023/08/28 12:44:06;;;;;;;1.40;1.40;;;26.90;66.50;;;;;;4846418;29;20996;-84
2023/08/28 12:46:34;;;;;;;1.40;1.30;;;26.90;66.40;;;;;;4855182;29;21067;-82
2023/08/28 12:49:03;;;;;;;1.40;1.30;;;26.90;66.40;;;;;;4843991;29;20480;-83
2023/08/28 12:51:32;;;;;;;1.50;1.40;;;26.90;66.40;;;;;;4862401;29;20497;-82
2023/08/28 12:54:00;;;;;;;1.57;1.47;;;26.90;66.40;;;;;;4861983;29;20570;-82
2023/08/28 12:56:28;;;;;;;1.80;1.70;;;27.00;66.30;;;;;;4862290;29;20456;-82
2023/08/28 12:58:58;;;;;;;1.73;1.63;;;27.00;66.30;;;;;;4861725;29;20451;-82
2023/08/28 13:01:26;;;;;;;1.33;1.33;;;27.00;66.30;;;;;;4861597;29;20450;-82
2023/08/28 13:03:54;;;;;;;1.50;1.40;;;26.90;66.30;;;;;;4861606;29;21398;-81